sensor_id;sensor_type;location;lat;lon;timestamp;temperature;humidity
45283;DHT22;31023;44.994;1.796;2023-10-31T00:01:32;10.60;99.90
45283;DHT22;31023;44.994;1.796;2023-10-31T00:03:57;10.60;99.90
45283;DHT22;31023;44.994;1.796;2023-10-31T00:06:23;10.70;99.90
45283;DHT22;31023;44.994;1.796;2023-10-31T00:08:49;10.80;99.90
45283;DHT22;31023;44.994;1.796;2023-10-31T00:11:14;11.00;99.90
45283;DHT22;31023;44.994;1.796;2023-10-31T00:13:41;11.00;99.90
45283;DHT22;31023;44.994;1.796;2023-10-31T00:16:07;11.00;99.90
45283;DHT22;31023;44.994;1.796;2023-10-31T00:18:33;11.00;99.90
45283;DHT22;31023;44.994;1.796;2023-10-31T00:20:58;11.00;99.90
45283;DHT22;31023;44.994;1.796;2023-10-31T00:23:24;11.00;99.90
45283;DHT22;31023;44.994;1.796;2023-10-31T00:25:50;11.00;99.90
45283;DHT22;31023;44.994;1.796;2023-10-31T00:28:15;10.90;99.90
45283;DHT22;31023;44.994;1.796;2023-10-31T00:30:41;11.00;99.90
45283;DHT22;31023;44.994;1.796;2023-10-31T00:33:06;10.90;99.90
45283;DHT22;31023;44.994;1.796;2023-10-31T00:35:32;10.90;99.90
45283;DHT22;31023;44.994;1.796;2023-10-31T00:37:58;10.90;99.90
45283;DHT22;31023;44.994;1.796;2023-10-31T00:40:23;10.90;99.90
45283;DHT22;31023;44.994;1.796;2023-10-31T00:42:49;10.90;99.90
45283;DHT22;31023;44.994;1.796;2023-10-31T00:45:15;11.00;99.90
45283;DHT22;31023;44.994;1.796;2023-10-31T00:47:40;11.00;99.90
45283;DHT22;31023;44.994;1.796;2023-10-31T00:50:06;11.00;99.90
45283;DHT22;31023;44.994;1.796;2023-10-31T00:52:33;11.00;99.90
45283;DHT22;31023;44.994;1.796;2023-10-31T00:54:58;11.00;99.90
45283;DHT22;31023;44.994;1.796;2023-10-31T00:57:24;11.00;99.90
45283;DHT22;31023;44.994;1.796;2023-10-31T00:59:50;10.90;99.90
45283;DHT22;31023;44.994;1.796;2023-10-31T01:02:15;10.90;99.90
45283;DHT22;31023;44.994;1.796;2023-10-31T01:04:41;10.80;99.90
45283;DHT22;31023;44.994;1.796;2023-10-31T01:07:07;10.70;99.90
45283;DHT22;31023;44.994;1.796;2023-10-31T01:09:37;10.70;99.90
45283;DHT22;31023;44.994;1.796;2023-10-31T01:12:04;10.70;99.90
45283;DHT22;31023;44.994;1.796;2023-10-31T01:14:30;10.70;99.90
45283;DHT22;31023;44.994;1.796;2023-10-31T01:16:55;10.40;99.90
45283;DHT22;31023;44.994;1.796;2023-10-31T01:19:21;10.30;99.90
45283;DHT22;31023;44.994;1.796;2023-10-31T01:21:46;10.40;99.90
45283;DHT22;31023;44.994;1.796;2023-10-31T01:24:12;10.30;99.90
45283;DHT22;31023;44.994;1.796;2023-10-31T01:26:38;10.50;99.90
45283;DHT22;31023;44.994;1.796;2023-10-31T01:29:03;10.60;99.90
45283;DHT22;31023;44.994;1.796;2023-10-31T01:31:29;10.50;99.90
45283;DHT22;31023;44.994;1.796;2023-10-31T01:33:55;10.40;99.90
45283;DHT22;31023;44.994;1.796;2023-10-31T01:36:25;10.60;99.90
45283;DHT22;31023;44.994;1.796;2023-10-31T01:38:51;10.60;99.90
45283;DHT22;31023;44.994;1.796;2023-10-31T01:41:17;10.60;99.90
45283;DHT22;31023;44.994;1.796;2023-10-31T01:43:42;10.60;99.90
45283;DHT22;31023;44.994;1.796;2023-10-31T01:46:08;10.60;99.90
45283;DHT22;31023;44.994;1.796;2023-10-31T01:48:34;10.70;99.90
45283;DHT22;31023;44.994;1.796;2023-10-31T01:51:02;10.70;99.90
45283;DHT22;31023;44.994;1.796;2023-10-31T01:53:30;10.70;99.90
45283;DHT22;31023;44.994;1.796;2023-10-31T01:55:58;10.70;99.90
45283;DHT22;31023;44.994;1.796;2023-10-31T01:58:29;10.60;99.90
45283;DHT22;31023;44.994;1.796;2023-10-31T02:00:56;10.70;99.90
45283;DHT22;31023;44.994;1.796;2023-10-31T02:03:22;10.60;99.90
45283;DHT22;31023;44.994;1.796;2023-10-31T02:05:47;10.60;99.90
45283;DHT22;31023;44.994;1.796;2023-10-31T02:08:13;10.60;99.90
45283;DHT22;31023;44.994;1.796;2023-10-31T02:10:39;10.60;99.90
45283;DHT22;31023;44.994;1.796;2023-10-31T02:13:12;10.60;99.90
45283;DHT22;31023;44.994;1.796;2023-10-31T02:15:38;10.60;99.90
45283;DHT22;31023;44.994;1.796;2023-10-31T02:18:04;10.70;99.90
45283;DHT22;31023;44.994;1.796;2023-10-31T02:20:30;10.70;99.90
45283;DHT22;31023;44.994;1.796;2023-10-31T02:22:55;10.70;99.90
45283;DHT22;31023;44.994;1.796;2023-10-31T02:25:21;10.80;99.90
45283;DHT22;31023;44.994;1.796;2023-10-31T02:27:47;10.70;99.90
45283;DHT22;31023;44.994;1.796;2023-10-31T02:30:13;10.80;99.90
45283;DHT22;31023;44.994;1.796;2023-10-31T02:32:40;10.80;99.90
45283;DHT22;31023;44.994;1.796;2023-10-31T02:35:06;10.80;99.90
45283;DHT22;31023;44.994;1.796;2023-10-31T02:37:32;10.80;99.90
45283;DHT22;31023;44.994;1.796;2023-10-31T02:39:57;10.80;99.90
45283;DHT22;31023;44.994;1.796;2023-10-31T02:42:24;10.80;99.90
45283;DHT22;31023;44.994;1.796;2023-10-31T02:44:49;10.90;99.90
45283;DHT22;31023;44.994;1.796;2023-10-31T02:47:15;10.90;99.90
45283;DHT22;31023;44.994;1.796;2023-10-31T02:49:41;10.80;99.90
45283;DHT22;31023;44.994;1.796;2023-10-31T02:52:06;10.80;99.90
45283;DHT22;31023;44.994;1.796;2023-10-31T02:54:32;10.80;99.90
45283;DHT22;31023;44.994;1.796;2023-10-31T02:56:58;10.80;99.90
45283;DHT22;31023;44.994;1.796;2023-10-31T02:59:24;10.80;99.90
45283;DHT22;31023;44.994;1.796;2023-10-31T03:01:49;10.80;99.90
45283;DHT22;31023;44.994;1.796;2023-10-31T03:04:15;10.80;99.90
45283;DHT22;31023;44.994;1.796;2023-10-31T03:06:41;10.80;99.90
45283;DHT22;31023;44.994;1.796;2023-10-31T03:09:07;10.80;99.90
45283;DHT22;31023;44.994;1.796;2023-10-31T03:11:33;10.80;99.90
45283;DHT22;31023;44.994;1.796;2023-10-31T03:13:59;10.90;99.90
45283;DHT22;31023;44.994;1.796;2023-10-31T03:16:25;10.80;99.90
45283;DHT22;31023;44.994;1.796;2023-10-31T03:18:51;10.70;99.90
45283;DHT22;31023;44.994;1.796;2023-10-31T03:21:17;10.70;99.90
45283;DHT22;31023;44.994;1.796;2023-10-31T03:23:49;10.60;99.90
45283;DHT22;31023;44.994;1.796;2023-10-31T03:26:16;10.70;99.90
45283;DHT22;31023;44.994;1.796;2023-10-31T03:28:43;10.80;99.90
45283;DHT22;31023;44.994;1.796;2023-10-31T03:31:10;10.80;99.90
45283;DHT22;31023;44.994;1.796;2023-10-31T03:33:35;10.80;99.90
45283;DHT22;31023;44.994;1.796;2023-10-31T03:36:01;10.80;99.90
45283;DHT22;31023;44.994;1.796;2023-10-31T03:38:27;10.80;99.90
45283;DHT22;31023;44.994;1.796;2023-10-31T03:40:53;10.80;99.90
45283;DHT22;31023;44.994;1.796;2023-10-31T03:43:19;10.80;99.90
45283;DHT22;31023;44.994;1.796;2023-10-31T03:45:46;10.80;99.90
45283;DHT22;31023;44.994;1.796;2023-10-31T03:48:18;10.90;99.90
45283;DHT22;31023;44.994;1.796;2023-10-31T03:50:44;10.90;99.90
45283;DHT22;31023;44.994;1.796;2023-10-31T03:53:10;10.80;99.90
45283;DHT22;31023;44.994;1.796;2023-10-31T03:55:35;10.90;99.90
45283;DHT22;31023;44.994;1.796;2023-10-31T03:58:01;10.90;99.90
45283;DHT22;31023;44.994;1.796;2023-10-31T04:00:27;10.90;99.90
45283;DHT22;31023;44.994;1.796;2023-10-31T04:02:52;11.00;99.90
45283;DHT22;31023;44.994;1.796;2023-10-31T04:05:18;10.90;99.90
45283;DHT22;31023;44.994;1.796;2023-10-31T04:07:46;10.90;99.90
45283;DHT22;31023;44.994;1.796;2023-10-31T04:10:12;10.90;99.90
45283;DHT22;31023;44.994;1.796;2023-10-31T04:12:38;10.80;99.90
45283;DHT22;31023;44.994;1.796;2023-10-31T04:15:04;10.90;99.90
45283;DHT22;31023;44.994;1.796;2023-10-31T04:17:30;10.90;99.90
45283;DHT22;31023;44.994;1.796;2023-10-31T04:19:56;10.90;99.90
45283;DHT22;31023;44.994;1.796;2023-10-31T04:22:22;10.90;99.90
45283;DHT22;31023;44.994;1.796;2023-10-31T04:24:48;10.80;99.90
45283;DHT22;31023;44.994;1.796;2023-10-31T04:27:13;10.80;99.90
45283;DHT22;31023;44.994;1.796;2023-10-31T04:29:39;10.80;99.90
45283;DHT22;31023;44.994;1.796;2023-10-31T04:32:05;10.90;99.90
45283;DHT22;31023;44.994;1.796;2023-10-31T04:34:31;10.80;99.90
45283;DHT22;31023;44.994;1.796;2023-10-31T04:36:57;10.90;99.90
45283;DHT22;31023;44.994;1.796;2023-10-31T04:39:23;10.80;99.90
45283;DHT22;31023;44.994;1.796;2023-10-31T04:41:48;10.90;99.90
45283;DHT22;31023;44.994;1.796;2023-10-31T04:44:14;10.80;99.90
45283;DHT22;31023;44.994;1.796;2023-10-31T04:46:40;10.70;99.90
45283;DHT22;31023;44.994;1.796;2023-10-31T04:49:05;10.70;99.90
45283;DHT22;31023;44.994;1.796;2023-10-31T04:51:35;10.70;99.90
45283;DHT22;31023;44.994;1.796;2023-10-31T04:54:01;10.60;99.90
45283;DHT22;31023;44.994;1.796;2023-10-31T04:56:27;10.50;99.90
45283;DHT22;31023;44.994;1.796;2023-10-31T04:58:53;10.40;99.90
45283;DHT22;31023;44.994;1.796;2023-10-31T05:01:18;10.50;99.90
45283;DHT22;31023;44.994;1.796;2023-10-31T05:03:45;10.50;99.90
45283;DHT22;31023;44.994;1.796;2023-10-31T05:06:10;10.50;99.90
45283;DHT22;31023;44.994;1.796;2023-10-31T05:08:36;10.50;99.90
45283;DHT22;31023;44.994;1.796;2023-10-31T05:11:02;10.30;99.90
45283;DHT22;31023;44.994;1.796;2023-10-31T05:13:28;10.40;99.90
45283;DHT22;31023;44.994;1.796;2023-10-31T05:15:53;10.40;99.90
45283;DHT22;31023;44.994;1.796;2023-10-31T05:18:19;10.40;99.90
45283;DHT22;31023;44.994;1.796;2023-10-31T05:20:45;10.50;99.90
45283;DHT22;31023;44.994;1.796;2023-10-31T05:23:11;10.50;99.90
45283;DHT22;31023;44.994;1.796;2023-10-31T05:25:37;10.50;99.90
45283;DHT22;31023;44.994;1.796;2023-10-31T05:28:03;10.60;99.90
45283;DHT22;31023;44.994;1.796;2023-10-31T05:30:29;10.60;99.90
45283;DHT22;31023;44.994;1.796;2023-10-31T05:32:55;10.70;99.90
45283;DHT22;31023;44.994;1.796;2023-10-31T05:35:21;10.80;99.90
45283;DHT22;31023;44.994;1.796;2023-10-31T05:37:47;10.80;99.90
45283;DHT22;31023;44.994;1.796;2023-10-31T05:40:14;10.60;99.90
45283;DHT22;31023;44.994;1.796;2023-10-31T05:42:40;10.70;99.90
45283;DHT22;31023;44.994;1.796;2023-10-31T05:45:06;10.80;99.90
45283;DHT22;31023;44.994;1.796;2023-10-31T05:47:31;10.70;99.90
45283;DHT22;31023;44.994;1.796;2023-10-31T05:49:58;10.70;99.90
45283;DHT22;31023;44.994;1.796;2023-10-31T05:52:30;10.70;99.90
45283;DHT22;31023;44.994;1.796;2023-10-31T05:54:57;10.70;99.90
45283;DHT22;31023;44.994;1.796;2023-10-31T05:57:23;10.60;99.90
45283;DHT22;31023;44.994;1.796;2023-10-31T05:59:48;10.80;99.90
45283;DHT22;31023;44.994;1.796;2023-10-31T06:02:14;10.80;99.90
45283;DHT22;31023;44.994;1.796;2023-10-31T06:04:40;10.80;99.90
45283;DHT22;31023;44.994;1.796;2023-10-31T06:07:06;10.90;99.90
45283;DHT22;31023;44.994;1.796;2023-10-31T06:09:32;10.90;99.90
45283;DHT22;31023;44.994;1.796;2023-10-31T06:12:01;10.90;99.90
45283;DHT22;31023;44.994;1.796;2023-10-31T06:14:26;10.90;99.90
45283;DHT22;31023;44.994;1.796;2023-10-31T06:16:52;10.90;99.90
45283;DHT22;31023;44.994;1.796;2023-10-31T06:19:19;11.00;99.90
45283;DHT22;31023;44.994;1.796;2023-10-31T06:21:45;10.90;99.90
45283;DHT22;31023;44.994;1.796;2023-10-31T06:24:10;11.00;99.90
45283;DHT22;31023;44.994;1.796;2023-10-31T06:26:36;11.00;99.90
45283;DHT22;31023;44.994;1.796;2023-10-31T06:29:02;11.10;99.90
45283;DHT22;31023;44.994;1.796;2023-10-31T06:31:29;11.10;99.90
45283;DHT22;31023;44.994;1.796;2023-10-31T06:33:54;11.00;99.90
45283;DHT22;31023;44.994;1.796;2023-10-31T06:36:20;11.10;99.90
45283;DHT22;31023;44.994;1.796;2023-10-31T06:38:45;11.10;99.90
45283;DHT22;31023;44.994;1.796;2023-10-31T06:41:11;11.10;99.90
45283;DHT22;31023;44.994;1.796;2023-10-31T06:43:37;11.10;99.90
45283;DHT22;31023;44.994;1.796;2023-10-31T06:46:03;11.10;99.90
45283;DHT22;31023;44.994;1.796;2023-10-31T06:48:30;11.10;99.90
45283;DHT22;31023;44.994;1.796;2023-10-31T06:50:56;10.90;99.90
45283;DHT22;31023;44.994;1.796;2023-10-31T06:53:21;11.00;99.90
45283;DHT22;31023;44.994;1.796;2023-10-31T06:55:47;11.10;99.90
45283;DHT22;31023;44.994;1.796;2023-10-31T06:58:14;11.00;99.90
45283;DHT22;31023;44.994;1.796;2023-10-31T07:00:39;11.10;99.90
45283;DHT22;31023;44.994;1.796;2023-10-31T07:03:05;11.20;99.90
45283;DHT22;31023;44.994;1.796;2023-10-31T07:05:36;11.20;99.90
45283;DHT22;31023;44.994;1.796;2023-10-31T07:08:02;11.30;99.90
45283;DHT22;31023;44.994;1.796;2023-10-31T07:10:28;11.10;99.90
45283;DHT22;31023;44.994;1.796;2023-10-31T07:12:54;11.20;99.90
45283;DHT22;31023;44.994;1.796;2023-10-31T07:15:20;11.20;99.90
45283;DHT22;31023;44.994;1.796;2023-10-31T07:17:46;11.20;99.90
45283;DHT22;31023;44.994;1.796;2023-10-31T07:20:12;11.30;99.90
45283;DHT22;31023;44.994;1.796;2023-10-31T07:22:38;11.30;99.90
45283;DHT22;31023;44.994;1.796;2023-10-31T07:25:05;11.10;99.90
45283;DHT22;31023;44.994;1.796;2023-10-31T07:27:31;11.10;99.90
45283;DHT22;31023;44.994;1.796;2023-10-31T07:29:57;11.20;99.90
45283;DHT22;31023;44.994;1.796;2023-10-31T07:32:22;11.20;99.90
45283;DHT22;31023;44.994;1.796;2023-10-31T07:34:48;11.50;99.90
45283;DHT22;31023;44.994;1.796;2023-10-31T07:37:14;11.50;99.90
45283;DHT22;31023;44.994;1.796;2023-10-31T07:39:39;11.50;99.90
45283;DHT22;31023;44.994;1.796;2023-10-31T07:42:05;11.50;99.90
45283;DHT22;31023;44.994;1.796;2023-10-31T07:44:31;11.50;99.90
45283;DHT22;31023;44.994;1.796;2023-10-31T07:46:57;11.60;99.90
45283;DHT22;31023;44.994;1.796;2023-10-31T07:49:22;11.70;99.90
45283;DHT22;31023;44.994;1.796;2023-10-31T07:51:48;11.70;99.90
45283;DHT22;31023;44.994;1.796;2023-10-31T07:54:14;11.80;99.90
45283;DHT22;31023;44.994;1.796;2023-10-31T07:56:41;11.70;99.90
45283;DHT22;31023;44.994;1.796;2023-10-31T07:59:07;11.60;99.90
45283;DHT22;31023;44.994;1.796;2023-10-31T08:01:34;11.60;99.90
45283;DHT22;31023;44.994;1.796;2023-10-31T08:04:00;11.60;99.90
45283;DHT22;31023;44.994;1.796;2023-10-31T08:06:26;11.70;99.90
45283;DHT22;31023;44.994;1.796;2023-10-31T08:08:51;11.70;99.90
45283;DHT22;31023;44.994;1.796;2023-10-31T08:11:17;11.80;99.90
45283;DHT22;31023;44.994;1.796;2023-10-31T08:13:43;11.60;99.90
45283;DHT22;31023;44.994;1.796;2023-10-31T08:16:08;11.80;99.90
45283;DHT22;31023;44.994;1.796;2023-10-31T08:18:34;11.80;99.90
45283;DHT22;31023;44.994;1.796;2023-10-31T08:21:00;11.60;99.90
45283;DHT22;31023;44.994;1.796;2023-10-31T08:23:28;11.60;99.90
45283;DHT22;31023;44.994;1.796;2023-10-31T08:25:53;11.60;99.90
45283;DHT22;31023;44.994;1.796;2023-10-31T08:28:19;11.40;99.90
45283;DHT22;31023;44.994;1.796;2023-10-31T08:30:45;11.30;99.90
45283;DHT22;31023;44.994;1.796;2023-10-31T08:33:11;11.50;99.90
45283;DHT22;31023;44.994;1.796;2023-10-31T08:35:37;11.70;99.90
45283;DHT22;31023;44.994;1.796;2023-10-31T08:38:03;12.20;99.90
45283;DHT22;31023;44.994;1.796;2023-10-31T08:40:28;12.30;99.90
45283;DHT22;31023;44.994;1.796;2023-10-31T08:42:54;12.10;99.90
45283;DHT22;31023;44.994;1.796;2023-10-31T08:45:20;11.90;99.90
45283;DHT22;31023;44.994;1.796;2023-10-31T08:47:46;11.90;99.90
45283;DHT22;31023;44.994;1.796;2023-10-31T08:50:12;11.90;99.90
45283;DHT22;31023;44.994;1.796;2023-10-31T08:52:39;12.10;99.90
45283;DHT22;31023;44.994;1.796;2023-10-31T08:55:05;12.20;99.90
45283;DHT22;31023;44.994;1.796;2023-10-31T08:57:31;12.00;99.90
45283;DHT22;31023;44.994;1.796;2023-10-31T08:59:59;12.10;99.90
45283;DHT22;31023;44.994;1.796;2023-10-31T09:02:25;12.20;99.90
45283;DHT22;31023;44.994;1.796;2023-10-31T09:04:50;12.30;99.90
45283;DHT22;31023;44.994;1.796;2023-10-31T09:07:16;12.20;99.90
45283;DHT22;31023;44.994;1.796;2023-10-31T09:09:42;12.10;99.90
45283;DHT22;31023;44.994;1.796;2023-10-31T09:12:08;12.20;99.90
45283;DHT22;31023;44.994;1.796;2023-10-31T09:14:33;12.30;99.90
45283;DHT22;31023;44.994;1.796;2023-10-31T09:17:00;12.50;99.90
45283;DHT22;31023;44.994;1.796;2023-10-31T09:19:26;12.70;99.90
45283;DHT22;31023;44.994;1.796;2023-10-31T09:21:52;13.10;99.90
45283;DHT22;31023;44.994;1.796;2023-10-31T09:24:17;14.10;99.90
45283;DHT22;31023;44.994;1.796;2023-10-31T09:26:43;13.20;99.90
45283;DHT22;31023;44.994;1.796;2023-10-31T09:29:10;13.40;99.90
45283;DHT22;31023;44.994;1.796;2023-10-31T09:31:36;13.70;99.90
45283;DHT22;31023;44.994;1.796;2023-10-31T09:34:02;13.50;99.90
45283;DHT22;31023;44.994;1.796;2023-10-31T09:36:32;14.00;99.90
45283;DHT22;31023;44.994;1.796;2023-10-31T09:38:59;13.40;99.90
45283;DHT22;31023;44.994;1.796;2023-10-31T09:41:25;13.00;99.90
45283;DHT22;31023;44.994;1.796;2023-10-31T09:43:50;12.90;99.90
45283;DHT22;31023;44.994;1.796;2023-10-31T09:46:16;12.90;99.90
45283;DHT22;31023;44.994;1.796;2023-10-31T09:48:43;12.90;99.90
45283;DHT22;31023;44.994;1.796;2023-10-31T09:51:09;12.80;99.90
45283;DHT22;31023;44.994;1.796;2023-10-31T09:53:38;13.00;99.90
45283;DHT22;31023;44.994;1.796;2023-10-31T09:56:07;13.20;99.90
45283;DHT22;31023;44.994;1.796;2023-10-31T09:58:33;13.20;99.90
45283;DHT22;31023;44.994;1.796;2023-10-31T10:00:59;13.00;99.90
45283;DHT22;31023;44.994;1.796;2023-10-31T10:03:26;12.90;99.90
45283;DHT22;31023;44.994;1.796;2023-10-31T10:05:52;12.80;99.90
45283;DHT22;31023;44.994;1.796;2023-10-31T10:08:17;12.70;99.90
45283;DHT22;31023;44.994;1.796;2023-10-31T10:10:43;13.00;99.90
45283;DHT22;31023;44.994;1.796;2023-10-31T10:13:09;13.30;99.90
45283;DHT22;31023;44.994;1.796;2023-10-31T10:15:46;13.40;99.90
45283;DHT22;31023;44.994;1.796;2023-10-31T10:21:02;13.60;99.90
45283;DHT22;31023;44.994;1.796;2023-10-31T10:23:29;13.70;99.90
45283;DHT22;31023;44.994;1.796;2023-10-31T10:25:56;13.50;99.90
45283;DHT22;31023;44.994;1.796;2023-10-31T10:28:23;13.70;99.90
45283;DHT22;31023;44.994;1.796;2023-10-31T10:30:53;14.00;99.90
45283;DHT22;31023;44.994;1.796;2023-10-31T10:33:20;13.90;99.90
45283;DHT22;31023;44.994;1.796;2023-10-31T10:35:46;13.90;99.90
45283;DHT22;31023;44.994;1.796;2023-10-31T10:38:16;13.80;99.90
45283;DHT22;31023;44.994;1.796;2023-10-31T10:40:46;13.90;99.90
45283;DHT22;31023;44.994;1.796;2023-10-31T10:43:24;14.40;99.90
45283;DHT22;31023;44.994;1.796;2023-10-31T10:45:55;15.70;99.90
45283;DHT22;31023;44.994;1.796;2023-10-31T10:48:21;16.00;99.90
45283;DHT22;31023;44.994;1.796;2023-10-31T10:50:51;15.70;99.90
45283;DHT22;31023;44.994;1.796;2023-10-31T10:53:24;15.20;99.90
45283;DHT22;31023;44.994;1.796;2023-10-31T10:56:34;14.40;99.90
45283;DHT22;31023;44.994;1.796;2023-10-31T10:59:07;14.60;99.90
45283;DHT22;31023;44.994;1.796;2023-10-31T11:01:34;14.60;99.90
45283;DHT22;31023;44.994;1.796;2023-10-31T11:04:01;14.60;99.90
45283;DHT22;31023;44.994;1.796;2023-10-31T11:06:28;15.00;99.90
45283;DHT22;31023;44.994;1.796;2023-10-31T11:08:55;15.70;99.90
45283;DHT22;31023;44.994;1.796;2023-10-31T11:11:21;15.80;99.90
45283;DHT22;31023;44.994;1.796;2023-10-31T11:13:50;15.50;99.90
45283;DHT22;31023;44.994;1.796;2023-10-31T11:16:35;15.30;99.90
45283;DHT22;31023;44.994;1.796;2023-10-31T11:19:05;14.90;99.90
45283;DHT22;31023;44.994;1.796;2023-10-31T11:21:31;15.10;99.90
45283;DHT22;31023;44.994;1.796;2023-10-31T11:23:58;15.00;99.90
45283;DHT22;31023;44.994;1.796;2023-10-31T11:26:31;15.00;99.90
45283;DHT22;31023;44.994;1.796;2023-10-31T11:29:04;15.10;99.90
45283;DHT22;31023;44.994;1.796;2023-10-31T11:31:31;15.10;99.90
45283;DHT22;31023;44.994;1.796;2023-10-31T11:33:57;15.00;99.90
45283;DHT22;31023;44.994;1.796;2023-10-31T11:36:22;15.80;99.90
45283;DHT22;31023;44.994;1.796;2023-10-31T11:38:48;16.20;99.90
45283;DHT22;31023;44.994;1.796;2023-10-31T11:41:14;16.70;99.90
45283;DHT22;31023;44.994;1.796;2023-10-31T11:46:06;16.60;99.90
45283;DHT22;31023;44.994;1.796;2023-10-31T11:48:51;16.30;99.90
45283;DHT22;31023;44.994;1.796;2023-10-31T11:51:17;16.10;99.90
45283;DHT22;31023;44.994;1.796;2023-10-31T11:53:48;16.20;99.90
45283;DHT22;31023;44.994;1.796;2023-10-31T11:56:15;16.40;99.90
45283;DHT22;31023;44.994;1.796;2023-10-31T11:58:41;16.50;99.90
45283;DHT22;31023;44.994;1.796;2023-10-31T12:01:09;16.10;99.90
45283;DHT22;31023;44.994;1.796;2023-10-31T12:03:43;15.80;99.90
45283;DHT22;31023;44.994;1.796;2023-10-31T12:06:13;16.20;99.90
45283;DHT22;31023;44.994;1.796;2023-10-31T12:08:41;15.80;99.90
45283;DHT22;31023;44.994;1.796;2023-10-31T12:13:34;15.20;99.90
45283;DHT22;31023;44.994;1.796;2023-10-31T12:16:00;14.90;99.90
45283;DHT22;31023;44.994;1.796;2023-10-31T12:18:27;14.70;99.90
45283;DHT22;31023;44.994;1.796;2023-10-31T12:20:53;14.60;99.90
45283;DHT22;31023;44.994;1.796;2023-10-31T12:23:19;14.70;99.90
45283;DHT22;31023;44.994;1.796;2023-10-31T12:25:48;14.80;99.90
45283;DHT22;31023;44.994;1.796;2023-10-31T12:28:21;15.20;99.90
45283;DHT22;31023;44.994;1.796;2023-10-31T12:30:49;15.60;99.90
45283;DHT22;31023;44.994;1.796;2023-10-31T12:33:16;15.30;99.90
45283;DHT22;31023;44.994;1.796;2023-10-31T12:35:44;15.20;99.90
45283;DHT22;31023;44.994;1.796;2023-10-31T12:38:11;15.60;99.90
45283;DHT22;31023;44.994;1.796;2023-10-31T12:40:38;15.80;99.90
45283;DHT22;31023;44.994;1.796;2023-10-31T12:43:04;16.20;99.90
45283;DHT22;31023;44.994;1.796;2023-10-31T12:45:30;16.40;99.90
45283;DHT22;31023;44.994;1.796;2023-10-31T12:48:08;16.60;99.90
45283;DHT22;31023;44.994;1.796;2023-10-31T12:50:36;16.70;99.90
45283;DHT22;31023;44.994;1.796;2023-10-31T12:53:08;16.60;99.90
45283;DHT22;31023;44.994;1.796;2023-10-31T12:55:41;16.60;99.90
45283;DHT22;31023;44.994;1.796;2023-10-31T12:58:08;16.20;99.90
45283;DHT22;31023;44.994;1.796;2023-10-31T13:00:40;15.90;99.90
45283;DHT22;31023;44.994;1.796;2023-10-31T13:03:08;15.60;99.90
45283;DHT22;31023;44.994;1.796;2023-10-31T13:05:35;15.30;99.90
45283;DHT22;31023;44.994;1.796;2023-10-31T13:08:13;15.10;99.90
45283;DHT22;31023;44.994;1.796;2023-10-31T13:10:39;15.00;99.90
45283;DHT22;31023;44.994;1.796;2023-10-31T13:13:05;14.90;99.90
45283;DHT22;31023;44.994;1.796;2023-10-31T13:15:31;14.80;99.90
45283;DHT22;31023;44.994;1.796;2023-10-31T13:17:57;14.70;99.90
45283;DHT22;31023;44.994;1.796;2023-10-31T13:20:22;14.60;99.90
45283;DHT22;31023;44.994;1.796;2023-10-31T13:22:49;14.50;99.90
45283;DHT22;31023;44.994;1.796;2023-10-31T13:25:16;14.50;99.90
45283;DHT22;31023;44.994;1.796;2023-10-31T13:27:42;14.30;99.90
45283;DHT22;31023;44.994;1.796;2023-10-31T13:30:09;14.10;99.90
45283;DHT22;31023;44.994;1.796;2023-10-31T13:32:36;14.00;99.90
45283;DHT22;31023;44.994;1.796;2023-10-31T13:35:02;14.10;99.90
45283;DHT22;31023;44.994;1.796;2023-10-31T13:37:28;14.10;99.90
45283;DHT22;31023;44.994;1.796;2023-10-31T13:39:54;14.30;99.90
45283;DHT22;31023;44.994;1.796;2023-10-31T13:42:20;14.60;99.90
45283;DHT22;31023;44.994;1.796;2023-10-31T13:44:46;15.00;99.90
45283;DHT22;31023;44.994;1.796;2023-10-31T13:47:13;15.30;99.90
45283;DHT22;31023;44.994;1.796;2023-10-31T13:49:39;15.20;99.90
45283;DHT22;31023;44.994;1.796;2023-10-31T13:52:05;14.80;99.90
45283;DHT22;31023;44.994;1.796;2023-10-31T13:54:33;14.60;99.90
45283;DHT22;31023;44.994;1.796;2023-10-31T13:56:59;14.60;99.90
45283;DHT22;31023;44.994;1.796;2023-10-31T13:59:25;14.60;99.90
45283;DHT22;31023;44.994;1.796;2023-10-31T14:01:51;14.70;99.90
45283;DHT22;31023;44.994;1.796;2023-10-31T14:04:18;14.90;99.90
45283;DHT22;31023;44.994;1.796;2023-10-31T14:06:44;14.80;99.90
45283;DHT22;31023;44.994;1.796;2023-10-31T14:09:10;14.70;99.90
45283;DHT22;31023;44.994;1.796;2023-10-31T14:11:38;14.80;99.90
45283;DHT22;31023;44.994;1.796;2023-10-31T14:14:04;14.80;99.90
45283;DHT22;31023;44.994;1.796;2023-10-31T14:16:42;14.60;99.90
45283;DHT22;31023;44.994;1.796;2023-10-31T14:19:10;14.50;99.90
45283;DHT22;31023;44.994;1.796;2023-10-31T14:21:36;14.30;99.90
45283;DHT22;31023;44.994;1.796;2023-10-31T14:24:02;14.20;99.90
45283;DHT22;31023;44.994;1.796;2023-10-31T14:26:29;14.20;99.90
45283;DHT22;31023;44.994;1.796;2023-10-31T14:28:55;14.20;99.90
45283;DHT22;31023;44.994;1.796;2023-10-31T14:31:21;14.40;99.90
45283;DHT22;31023;44.994;1.796;2023-10-31T14:33:49;14.70;99.90
45283;DHT22;31023;44.994;1.796;2023-10-31T14:36:14;14.90;99.90
45283;DHT22;31023;44.994;1.796;2023-10-31T14:38:41;14.90;99.90
45283;DHT22;31023;44.994;1.796;2023-10-31T14:41:07;15.00;99.90
45283;DHT22;31023;44.994;1.796;2023-10-31T14:43:34;15.10;99.90
45283;DHT22;31023;44.994;1.796;2023-10-31T14:46:00;15.00;99.90
45283;DHT22;31023;44.994;1.796;2023-10-31T14:48:26;15.00;99.90
45283;DHT22;31023;44.994;1.796;2023-10-31T14:50:51;15.10;99.90
45283;DHT22;31023;44.994;1.796;2023-10-31T14:53:17;15.10;99.90
45283;DHT22;31023;44.994;1.796;2023-10-31T14:55:45;15.10;99.90
45283;DHT22;31023;44.994;1.796;2023-10-31T14:58:10;15.10;99.90
45283;DHT22;31023;44.994;1.796;2023-10-31T15:00:36;15.10;99.90
45283;DHT22;31023;44.994;1.796;2023-10-31T15:03:03;15.20;99.90
45283;DHT22;31023;44.994;1.796;2023-10-31T15:05:29;15.10;99.90
45283;DHT22;31023;44.994;1.796;2023-10-31T15:07:56;15.10;99.90
45283;DHT22;31023;44.994;1.796;2023-10-31T15:10:23;15.10;99.90
45283;DHT22;31023;44.994;1.796;2023-10-31T15:12:49;15.10;99.90
45283;DHT22;31023;44.994;1.796;2023-10-31T15:15:18;15.00;99.90
45283;DHT22;31023;44.994;1.796;2023-10-31T15:17:44;14.80;99.90
45283;DHT22;31023;44.994;1.796;2023-10-31T15:20:11;14.80;99.90
45283;DHT22;31023;44.994;1.796;2023-10-31T15:22:42;14.80;99.90
45283;DHT22;31023;44.994;1.796;2023-10-31T15:25:11;14.70;99.90
45283;DHT22;31023;44.994;1.796;2023-10-31T15:27:37;14.70;99.90
45283;DHT22;31023;44.994;1.796;2023-10-31T15:30:07;14.60;99.90
45283;DHT22;31023;44.994;1.796;2023-10-31T15:32:33;14.60;99.90
45283;DHT22;31023;44.994;1.796;2023-10-31T15:34:59;14.50;99.90